Time;durP1;ratioP1;P1;durP2;ratioP2;P2;SDS_P1;SDS_P2;PMS_P1;PMS_P2;Temp;Humidity;BMP_temperature;BMP_pressure;BME280_temperature;BME280_humidity;BME280_pressure;Samples;Min_cycle;Max_cycle;Signal;HPM_P1;HPM_P2
2023/03/01 00:01:23;;;;;;;;;;;;;;;-2.42;100.00;99661.44;5049360;28;19970;-60
2023/03/01 00:03:49;;;;;;;;;;;;;;;-2.58;100.00;99667.34;5046934;28;20039;-61
2023/03/01 00:06:14;;;;;;;;;;;;;;;-2.66;100.00;99665.25;5031145;28;19952;-61
2023/03/01 00:08:40;;;;;;;;;;;;;;;-2.80;100.00;99670.44;5040562;28;19971;-60
2023/03/01 00:11:17;;;;;;;;;;;;;;;-2.90;100.00;99673.28;5047951;28;19944;-61
2023/03/01 00:13:43;;;;;;;;;;;;;;;-2.98;100.00;99672.03;5047264;28;20248;-61
2023/03/01 00:16:14;;;;;;;;;;;;;;;-3.10;100.00;99663.88;5049037;28;19941;-62
2023/03/01 00:18:39;;;;;;;;;;;;;;;-3.24;100.00;99659.81;5049099;28;19946;-61
2023/03/01 00:21:05;;;;;;;;;;;;;;;-3.32;100.00;99663.56;5045640;28;20328;-61
2023/03/01 00:23:31;;;;;;;;;;;;;;;-3.32;100.00;99661.06;5029797;28;19946;-61
2023/03/01 00:25:57;;;;;;;;;;;;;;;-3.35;100.00;99661.75;5035109;28;20030;-61
2023/03/01 00:28:23;;;;;;;;;;;;;;;-3.42;100.00;99659.72;5049705;28;20103;-60
2023/03/01 00:30:48;;;;;;;;;;;;;;;-3.44;100.00;99662.94;5032913;28;19941;-61
2023/03/01 00:33:14;;;;;;;;;;;;;;;-3.47;100.00;99663.63;5030500;28;20601;-61
2023/03/01 00:35:42;;;;;;;;;;;;;;;-3.44;100.00;99663.78;5048389;28;19986;-61
2023/03/01 00:38:08;;;;;;;;;;;;;;;-3.47;100.00;99661.09;5047264;28;19945;-61
2023/03/01 00:40:35;;;;;;;;;;;;;;;-3.50;100.00;99662.59;5038032;28;20023;-62
2023/03/01 00:43:00;;;;;;;;;;;;;;;-3.50;100.00;99662.59;5030994;28;19989;-63
2023/03/01 00:45:26;;;;;;;;;;;;;;;-3.46;100.00;99661.97;5033052;28;20014;-60
2023/03/01 00:47:52;;;;;;;;;;;;;;;-3.39;100.00;99664.88;5030800;28;19941;-61
2023/03/01 00:50:18;;;;;;;;;;;;;;;-3.41;100.00;99663.09;5033641;28;19948;-61
2023/03/01 00:52:44;;;;;;;;;;;;;;;-3.44;100.00;99655.41;5047751;28;19947;-60
2023/03/01 00:55:09;;;;;;;;;;;;;;;-3.43;100.00;99652.97;5048811;28;20341;-61
2023/03/01 00:57:35;;;;;;;;;;;;;;;-3.41;100.00;99656.44;5047192;28;19946;-60
2023/03/01 01:00:01;;;;;;;;;;;;;;;-3.39;100.00;99652.34;5045846;28;20476;-60
2023/03/01 01:02:26;;;;;;;;;;;;;;;-3.39;100.00;99647.31;5047706;28;20499;-60
2023/03/01 01:04:52;;;;;;;;;;;;;;;-3.32;100.00;99648.53;5047287;28;19948;-60
2023/03/01 01:07:19;;;;;;;;;;;;;;;-3.27;100.00;99650.47;5033752;28;20061;-59
2023/03/01 01:09:45;;;;;;;;;;;;;;;-3.20;100.00;99648.28;5048832;28;19987;-61
2023/03/01 01:12:11;;;;;;;;;;;;;;;-3.12;100.00;99642.88;5047516;28;19954;-61
2023/03/01 01:14:37;;;;;;;;;;;;;;;-3.05;100.00;99642.38;5046633;28;20500;-61
2023/03/01 01:17:03;;;;;;;;;;;;;;;-2.97;100.00;99633.59;5047097;28;19998;-60
2023/03/01 01:19:28;;;;;;;;;;;;;;;-2.93;100.00;99627.94;5033759;28;20062;-59
2023/03/01 01:21:54;;;;;;;;;;;;;;;-2.82;100.00;99639.41;5047962;28;19949;-60
2023/03/01 01:24:19;;;;;;;;;;;;;;;-2.76;100.00;99638.84;5046971;28;19952;-61
2023/03/01 01:26:45;;;;;;;;;;;;;;;-2.70;100.00;99629.09;5029550;28;19996;-60
2023/03/01 01:29:12;;;;;;;;;;;;;;;-2.66;100.00;99633.47;5046531;28;20313;-61
2023/03/01 01:31:38;;;;;;;;;;;;;;;-2.63;100.00;99621.06;5048885;28;19993;-61
2023/03/01 01:34:05;;;;;;;;;;;;;;;-2.55;100.00;99624.84;5049839;28;19941;-60
2023/03/01 01:36:31;;;;;;;;;;;;;;;-2.47;100.00;99623.56;5036593;28;20330;-60
2023/03/01 01:38:57;;;;;;;;;;;;;;;-2.40;100.00;99628.06;5040358;28;19965;-60
2023/03/01 01:41:23;;;;;;;;;;;;;;;-2.38;100.00;99618.13;5039837;28;19958;-60
2023/03/01 01:44:09;;;;;;;;;;;;;;;-2.36;100.00;99624.06;5047421;28;20018;-61
2023/03/01 01:46:37;;;;;;;;;;;;;;;-2.34;100.00;99623.38;5048543;28;19943;-60
2023/03/01 01:49:12;;;;;;;;;;;;;;;-2.33;100.00;99607.47;5039553;28;19945;-64
2023/03/01 01:51:40;;;;;;;;;;;;;;;-2.22;100.00;99615.53;5047336;28;20507;-60
2023/03/01 01:54:11;;;;;;;;;;;;;;;-2.16;100.00;99617.44;5046252;28;19987;-62
2023/03/01 01:56:39;;;;;;;;;;;;;;;-2.10;100.00;99613.59;5043972;28;19975;-59
2023/03/01 01:59:05;;;;;;;;;;;;;;;-2.10;100.00;99603.53;5043974;28;20050;-61
2023/03/01 02:01:30;;;;;;;;;;;;;;;-2.08;100.00;99604.47;5050548;28;20436;-60
2023/03/01 02:03:56;;;;;;;;;;;;;;;-2.04;100.00;99595.44;5048035;28;19951;-60
2023/03/01 02:06:30;;;;;;;;;;;;;;;-2.02;100.00;99592.19;5051039;28;20002;-60
2023/03/01 02:08:59;;;;;;;;;;;;;;;-1.96;100.00;99589.13;5051136;28;19939;-60
2023/03/01 02:11:25;;;;;;;;;;;;;;;-1.91;100.00;99597.72;5042977;28;19951;-61
2023/03/01 02:13:53;;;;;;;;;;;;;;;-1.85;100.00;99597.97;5029035;28;20078;-60
2023/03/01 02:16:18;;;;;;;;;;;;;;;-1.78;100.00;99602.47;5050111;28;20044;-61
2023/03/01 02:18:44;;;;;;;;;;;;;;;-1.78;100.00;99599.13;5049558;28;19978;-60
2023/03/01 02:21:16;;;;;;;;;;;;;;;-1.78;100.00;99599.13;5032456;28;20002;-60
2023/03/01 02:23:42;;;;;;;;;;;;;;;-1.75;100.00;99602.66;5049504;28;19939;-59
2023/03/01 02:26:16;;;;;;;;;;;;;;;-1.75;100.00;99601.78;5051740;28;19946;-60
2023/03/01 02:28:44;;;;;;;;;;;;;;;-1.78;100.00;99597.47;5051132;28;19948;-61
2023/03/01 02:33:55;;;;;;;;;;;;;;;-1.80;100.00;99604.09;5046765;28;20163;-60
2023/03/01 02:36:25;;;;;;;;;;;;;;;-1.76;100.00;99598.41;5028431;28;19988;-61
2023/03/01 02:38:53;;;;;;;;;;;;;;;-1.72;100.00;99597.75;5049119;28;19951;-60
2023/03/01 02:41:19;;;;;;;;;;;;;;;-1.69;100.00;99591.97;5032834;28;19992;-61
2023/03/01 02:43:45;;;;;;;;;;;;;;;-1.68;100.00;99584.53;5038567;28;19952;-61
2023/03/01 02:46:22;;;;;;;;;;;;;;;-1.62;100.00;99584.81;5050269;28;19997;-60
2023/03/01 02:48:49;;;;;;;;;;;;;;;-1.56;100.00;99582.53;5050182;28;19996;-60
2023/03/01 02:51:15;;;;;;;;;;;;;;;-1.54;100.00;99580.09;5029236;28;20034;-60
2023/03/01 02:53:45;;;;;;;;;;;;;;;-1.53;100.00;99576.81;5049573;28;19945;-60
2023/03/01 02:56:12;;;;;;;;;;;;;;;-1.48;100.00;99565.28;5040498;28;20309;-59
2023/03/01 02:58:45;;;;;;;;;;;;;;;-1.41;100.00;99570.66;5027915;28;19975;-61
2023/03/01 03:01:14;;;;;;;;;;;;;;;-1.36;100.00;99564.97;5030137;28;19967;-60
2023/03/01 03:03:41;;;;;;;;;;;;;;;-1.28;100.00;99563.63;5038004;28;19946;-60
2023/03/01 03:06:07;;;;;;;;;;;;;;;-1.25;100.00;99556.22;5028633;28;20351;-59
2023/03/01 03:08:32;;;;;;;;;;;;;;;-1.20;100.00;99554.75;5036890;28;20360;-59
2023/03/01 03:10:58;;;;;;;;;;;;;;;-1.18;100.00;99556.53;5035769;28;19972;-61
2023/03/01 03:13:28;;;;;;;;;;;;;;;-1.14;100.00;99558.38;5030184;28;19994;-59
2023/03/01 03:15:55;;;;;;;;;;;;;;;-1.13;100.00;99560.09;5029362;28;20020;-60
2023/03/01 03:18:20;;;;;;;;;;;;;;;-1.15;100.00;99560.84;5035177;28;20692;-60
2023/03/01 03:20:46;;;;;;;;;;;;;;;-1.17;100.00;99554.88;5029428;28;19988;-61
2023/03/01 03:23:12;;;;;;;;;;;;;;;-1.18;100.00;99559.03;5030672;28;20459;-60
2023/03/01 03:25:38;;;;;;;;;;;;;;;-1.19;100.00;99547.25;5030849;28;20033;-59
2023/03/01 03:28:09;;;;;;;;;;;;;;;-1.19;100.00;99549.75;5029512;28;20305;-60
2023/03/01 03:30:35;;;;;;;;;;;;;;;-1.19;100.00;99557.31;5030247;28;20040;-59
2023/03/01 03:33:01;;;;;;;;;;;;;;;-1.19;100.00;99553.97;5029434;28;19954;-60
2023/03/01 03:35:30;;;;;;;;;;;;;;;-1.16;100.00;99554.94;5029992;28;20170;-59
2023/03/01 03:38:03;;;;;;;;;;;;;;;-1.15;100.00;99558.31;5028173;28;20360;-59
2023/03/01 03:40:31;;;;;;;;;;;;;;;-1.16;100.00;99551.56;5029198;28;20009;-59
2023/03/01 03:42:56;;;;;;;;;;;;;;;-1.09;100.00;99551.00;5029821;28;20488;-59
2023/03/01 03:45:22;;;;;;;;;;;;;;;-1.09;100.00;99543.47;5030275;28;19969;-60
2023/03/01 03:47:47;;;;;;;;;;;;;;;-1.08;100.00;99547.72;5030027;28;20414;-60
2023/03/01 03:50:14;;;;;;;;;;;;;;;-1.08;100.00;99538.50;5031150;28;19950;-60
2023/03/01 03:52:42;;;;;;;;;;;;;;;-1.08;100.00;99547.72;5029439;28;19950;-60
2023/03/01 03:55:10;;;;;;;;;;;;;;;-1.07;100.00;99547.78;5028150;28;20410;-60
2023/03/01 03:57:35;;;;;;;;;;;;;;;-1.08;100.00;99551.09;5030105;28;19949;-60
2023/03/01 04:00:04;;;;;;;;;;;;;;;-1.09;100.00;99544.34;5036685;28;20455;-60
2023/03/01 04:02:37;;;;;;;;;;;;;;;-1.14;100.00;99545.78;5029925;28;20389;-60
2023/03/01 04:05:03;;;;;;;;;;;;;;;-1.11;100.00;99545.06;5029494;28;19983;-60
2023/03/01 04:07:28;;;;;;;;;;;;;;;-1.11;100.00;99543.44;5029837;28;19953;-60
2023/03/01 04:09:54;;;;;;;;;;;;;;;-1.01;100.00;99545.50;5030236;28;19946;-59
2023/03/01 04:12:22;;;;;;;;;;;;;;;-0.96;100.00;99543.19;5025591;28;19969;-64
2023/03/01 04:14:48;;;;;;;;;;;;;;;-1.03;100.00;99537.06;5026511;28;20317;-59
2023/03/01 04:17:13;;;;;;;;;;;;;;;-1.06;100.00;99541.94;5028642;28;19944;-60
2023/03/01 04:19:39;;;;;;;;;;;;;;;-1.08;100.00;99533.47;5030665;28;19958;-61
2023/03/01 04:22:09;;;;;;;;;;;;;;;-1.00;100.00;99549.75;5029407;28;19954;-60
2023/03/01 04:24:35;;;;;;;;;;;;;;;-0.97;100.00;99543.97;5028140;28;20099;-61
2023/03/01 04:27:00;;;;;;;;;;;;;;;-0.97;100.00;99547.34;5038285;28;20615;-61
2023/03/01 04:29:26;;;;;;;;;;;;;;;-0.94;100.00;99555.03;5034201;28;19992;-60
2023/03/01 04:31:51;;;;;;;;;;;;;;;-0.82;100.00;99551.31;5025319;28;20172;-58
2023/03/01 04:34:17;;;;;;;;;;;;;;;-0.72;100.00;99543.34;5028537;28;19941;-60
2023/03/01 04:36:42;;;;;;;;;;;;;;;-0.59;100.00;99551.41;5027945;28;20459;-59
2023/03/01 04:39:11;;;;;;;;;;;;;;;-0.28;100.00;99547.56;5028921;28;20064;-61
2023/03/01 04:41:38;;;;;;;;;;;;;;;-0.04;100.00;99549.34;5028521;28;20541;-60
2023/03/01 04:44:04;;;;;;;;;;;;;;;-0.20;100.00;99553.75;5029885;28;19953;-61
2023/03/01 04:46:30;;;;;;;;;;;;;;;-0.23;100.00;99549.47;5028790;28;19960;-60
2023/03/01 04:48:55;;;;;;;;;;;;;;;-0.26;100.00;99558.56;5028663;28;19957;-58
2023/03/01 04:51:21;;;;;;;;;;;;;;;-0.06;100.00;99560.19;5025851;28;19954;-59
2023/03/01 04:53:47;;;;;;;;;;;;;;;0.05;100.00;99563.09;5025413;28;20008;-60
2023/03/01 04:56:15;;;;;;;;;;;;;;;0.64;100.00;99566.13;5037105;28;20044;-60
2023/03/01 04:58:41;;;;;;;;;;;;;;;0.49;100.00;99572.28;5029331;28;19957;-59
2023/03/01 05:01:17;;;;;;;;;;;;;;;0.39;100.00;99574.47;5029258;28;19952;-59
2023/03/01 05:03:47;;;;;;;;;;;;;;;0.17;100.00;99576.19;5030097;28;20049;-60
2023/03/01 05:06:13;;;;;;;;;;;;;;;0.00;100.00;99571.34;5029158;28;19945;-59
2023/03/01 05:08:39;;;;;;;;;;;;;;;-0.13;100.00;99571.69;5027487;28;20494;-58
2023/03/01 05:11:05;;;;;;;;;;;;;;;-0.26;100.00;99569.53;5029536;28;20441;-62
2023/03/01 05:13:31;;;;;;;;;;;;;;;-0.37;100.00;99585.00;5028387;28;19975;-59
2023/03/01 05:15:58;;;;;;;;;;;;;;;-0.43;100.00;99578.06;5028119;28;19948;-61
2023/03/01 05:18:28;;;;;;;;;;;;;;;-0.54;100.00;99580.16;5027242;28;20008;-59
2023/03/01 05:20:56;;;;;;;;;;;;;;;-0.62;100.00;99576.47;5025875;28;19964;-59
2023/03/01 05:23:22;;;;;;;;;;;;;;;-0.61;100.00;99578.19;5028213;28;19973;-61
2023/03/01 05:25:47;;;;;;;;;;;;;;;-0.62;100.00;99576.47;5028353;28;20378;-60
2023/03/01 05:28:13;;;;;;;;;;;;;;;-0.65;100.00;99583.91;5028689;28;20388;-60
2023/03/01 05:30:39;;;;;;;;;;;;;;;-0.66;100.00;99581.31;5027443;28;19947;-61
2023/03/01 05:33:10;;;;;;;;;;;;;;;-0.68;100.00;99581.25;5028999;28;20320;-60
2023/03/01 05:35:35;;;;;;;;;;;;;;;-0.68;100.00;99581.25;5031186;28;20266;-60
2023/03/01 05:38:01;;;;;;;;;;;;;;;-0.68;100.00;99580.41;5033367;28;20304;-60
2023/03/01 05:40:26;;;;;;;;;;;;;;;-0.69;100.00;99578.69;5028842;28;19959;-61
2023/03/01 05:42:56;;;;;;;;;;;;;;;-0.69;100.00;99583.72;5026707;28;20019;-59
2023/03/01 05:45:22;;;;;;;;;;;;;;;-0.72;100.00;99578.56;5030454;28;20040;-61
2023/03/01 05:47:48;;;;;;;;;;;;;;;-0.70;100.00;99582.88;5031378;28;19942;-61
2023/03/01 05:50:18;;;;;;;;;;;;;;;-0.68;100.00;99583.75;5030822;28;19940;-61
2023/03/01 05:52:48;;;;;;;;;;;;;;;-0.63;100.00;99582.28;5039651;28;19942;-60
2023/03/01 05:55:14;;;;;;;;;;;;;;;-0.60;100.00;99582.44;5029540;28;19994;-60
2023/03/01 05:57:40;;;;;;;;;;;;;;;-0.58;100.00;99585.00;5026926;28;19945;-60
2023/03/01 06:00:06;;;;;;;;;;;;;;;-0.50;100.00;99588.69;5046984;28;19966;-61
2023/03/01 06:02:37;;;;;;;;;;;;;;;-0.43;100.00;99587.28;5050057;28;19943;-60
2023/03/01 06:05:04;;;;;;;;;;;;;;;-0.46;100.00;99573.75;5049089;28;20448;-59
2023/03/01 06:07:29;;;;;;;;;;;;;;;-0.44;100.00;99580.53;5050405;28;19951;-58
2023/03/01 06:09:55;;;;;;;;;;;;;;;-0.45;100.00;99584.69;5050789;28;19990;-58
2023/03/01 06:12:20;;;;;;;;;;;;;;;-0.39;100.00;99589.13;5051126;28;19987;-58
2023/03/01 06:14:47;;;;;;;;;;;;;;;-0.39;100.00;99589.13;5047729;28;19953;-58
2023/03/01 06:17:12;;;;;;;;;;;;;;;-0.41;100.00;99584.00;5030856;28;19944;-58
2023/03/01 06:19:37;;;;;;;;;;;;;;;-0.22;100.00;99586.47;5052263;28;20039;-60
2023/03/01 06:22:03;;;;;;;;;;;;;;;-0.27;100.00;99582.91;5049245;28;19967;-60
2023/03/01 06:24:29;;;;;;;;;;;;;;;-0.20;100.00;99579.81;5048532;28;20567;-60
2023/03/01 06:26:55;;;;;;;;;;;;;;;-0.17;100.00;99587.47;5049451;28;20411;-59
2023/03/01 06:29:22;;;;;;;;;;;;;;;-0.11;100.00;99589.38;5047678;28;20052;-59
2023/03/01 06:31:47;;;;;;;;;;;;;;;-0.02;100.00;99590.59;5044137;28;20315;-61
2023/03/01 06:34:13;;;;;;;;;;;;;;;0.11;100.00;99589.41;5048359;28;20409;-58
2023/03/01 06:36:39;;;;;;;;;;;;;;;0.17;100.00;99589.63;5049132;28;20325;-57
2023/03/01 06:39:05;;;;;;;;;;;;;;;0.15;100.00;99592.91;5049117;28;19951;-59
2023/03/01 06:41:30;;;;;;;;;;;;;;;0.14;100.00;99583.59;5046627;28;20321;-58
2023/03/01 06:43:56;;;;;;;;;;;;;;;0.18;100.00;99577.88;5046020;28;19944;-58
2023/03/01 06:46:21;;;;;;;;;;;;;;;0.30;100.00;99578.31;5031781;28;19993;-59
2023/03/01 06:48:47;;;;;;;;;;;;;;;0.34;100.00;99587.75;5032802;28;19994;-59
2023/03/01 06:51:12;;;;;;;;;;;;;;;0.37;100.00;99590.38;5050990;28;19942;-59
2023/03/01 06:53:38;;;;;;;;;;;;;;;0.34;100.00;99592.78;5050117;28;20444;-59
2023/03/01 06:56:03;;;;;;;;;;;;;;;0.24;100.00;99590.72;5050294;28;20418;-59
2023/03/01 06:58:29;;;;;;;;;;;;;;;0.21;100.00;99593.13;5029962;28;20559;-59
2023/03/01 07:00:55;;;;;;;;;;;;;;;0.25;100.00;99590.78;5028632;28;19959;-59
2023/03/01 07:03:20;;;;;;;;;;;;;;;0.32;100.00;99587.69;5028772;28;19941;-62
2023/03/01 07:05:48;;;;;;;;;;;;;;;0.47;100.00;99584.84;5029337;28;20345;-59
2023/03/01 07:08:14;;;;;;;;;;;;;;;0.59;100.00;99582.78;5029381;28;19941;-59
2023/03/01 07:10:40;;;;;;;;;;;;;;;0.68;100.00;99584.78;5027190;28;19956;-60
2023/03/01 07:13:06;;;;;;;;;;;;;;;0.84;100.00;99594.59;5029995;28;19943;-59
2023/03/01 07:15:32;;;;;;;;;;;;;;;0.90;100.00;99593.13;5029224;28;20069;-59
2023/03/01 07:17:58;;;;;;;;;;;;;;;0.99;100.00;99595.09;5030079;28;19948;-58
2023/03/01 07:20:25;;;;;;;;;;;;;;;1.07;100.00;99596.22;5033686;28;19970;-60
2023/03/01 07:22:51;;;;;;;;;;;;;;;1.13;100.00;99598.09;5030869;28;19954;-60
2023/03/01 07:25:17;;;;;;;;;;;;;;;1.30;100.00;99594.47;5025883;28;19945;-60
2023/03/01 07:27:42;;;;;;;;;;;;;;;1.31;100.00;99608.84;5028226;28;19948;-59
2023/03/01 07:30:08;;;;;;;;;;;;;;;1.28;100.00;99602.00;5027769;28;20459;-59
2023/03/01 07:32:34;;;;;;;;;;;;;;;1.40;100.00;99599.00;5028938;28;19986;-60
2023/03/01 07:34:59;;;;;;;;;;;;;;;1.45;100.00;99596.63;5030256;28;19945;-60
2023/03/01 07:37:25;;;;;;;;;;;;;;;1.58;100.00;99593.69;5030883;28;19945;-59
2023/03/01 07:39:50;;;;;;;;;;;;;;;1.57;100.00;99595.34;5028911;28;20720;-58
2023/03/01 07:42:16;;;;;;;;;;;;;;;1.64;100.00;99597.28;5029233;28;19944;-59
2023/03/01 07:44:41;;;;;;;;;;;;;;;1.55;100.00;99594.47;5029113;28;19946;-59
2023/03/01 07:47:07;;;;;;;;;;;;;;;1.68;100.00;99594.06;5027679;28;20055;-59
2023/03/01 07:49:32;;;;;;;;;;;;;;;1.71;100.00;99599.19;5025873;28;20004;-60
2023/03/01 07:51:58;;;;;;;;;;;;;;;1.72;100.00;99598.38;5027442;28;20477;-59
2023/03/01 07:54:24;;;;;;;;;;;;;;;1.76;100.00;99597.66;5009595;28;19956;-61
2023/03/01 07:56:49;;;;;;;;;;;;;;;1.72;100.00;99597.53;5028373;28;19952;-59
2023/03/01 07:59:15;;;;;;;;;;;;;;;1.70;100.00;99601.66;5039098;28;20499;-61
2023/03/01 08:01:41;;;;;;;;;;;;;;;1.55;100.00;99601.19;5035522;28;19970;-60
2023/03/01 08:04:07;;;;;;;;;;;;;;;1.68;100.00;99590.66;5049579;28;19942;-59
2023/03/01 08:06:34;;;;;;;;;;;;;;;1.72;100.00;99607.63;5047477;28;20072;-60
2023/03/01 08:08:59;;;;;;;;;;;;;;;1.91;100.00;99594.75;5048911;28;20478;-63
2023/03/01 08:11:27;;;;;;;;;;;;;;;1.83;100.00;99591.13;5048559;28;20352;-59
2023/03/01 08:13:53;;;;;;;;;;;;;;;1.67;100.00;99588.94;5050037;28;20071;-64
2023/03/01 08:16:18;;;;;;;;;;;;;;;1.49;100.00;99596.78;5040022;28;20400;-61
2023/03/01 08:18:44;;;;;;;;;;;;;;;1.33;100.00;99589.53;5045250;28;20097;-61
2023/03/01 08:21:11;;;;;;;;;;;;;;;1.42;100.00;99588.97;5049725;28;20389;-64
2023/03/01 08:23:36;;;;;;;;;;;;;;;1.71;100.00;99601.72;5049643;28;19940;-61
2023/03/01 08:26:05;;;;;;;;;;;;;;;2.03;100.00;99589.22;5047180;28;20001;-60
2023/03/01 08:28:31;;;;;;;;;;;;;;;2.30;100.00;99587.50;5047997;28;19950;-61
2023/03/01 08:30:56;;;;;;;;;;;;;;;2.50;100.00;99590.59;5045926;28;19948;-62
2023/03/01 08:33:22;;;;;;;;;;;;;;;2.77;100.00;99588.81;5048418;28;20051;-60
2023/03/01 08:35:47;;;;;;;;;;;;;;;2.80;100.00;99590.59;5046301;28;20284;-67
2023/03/01 08:38:13;;;;;;;;;;;;;;;2.94;100.00;99587.59;5048708;28;20038;-61
2023/03/01 08:40:38;;;;;;;;;;;;;;;2.81;100.00;99588.09;5046921;28;19963;-60
2023/03/01 08:43:04;;;;;;;;;;;;;;;3.01;100.00;99583.56;5045457;28;20040;-59
2023/03/01 08:45:29;;;;;;;;;;;;;;;3.22;100.00;99579.88;5024979;28;20319;-60
2023/03/01 08:47:55;;;;;;;;;;;;;;;3.30;100.00;99581.78;5046615;28;19980;-61
2023/03/01 08:50:20;;;;;;;;;;;;;;;3.39;100.00;99580.34;5044282;28;20750;-60
2023/03/01 08:52:46;;;;;;;;;;;;;;;3.40;100.00;99582.03;5031577;28;19964;-60
2023/03/01 08:55:11;;;;;;;;;;;;;;;3.46;100.00;99579.66;5045900;28;20346;-61
2023/03/01 08:57:37;;;;;;;;;;;;;;;3.30;100.00;99576.72;5047681;28;20469;-61
2023/03/01 09:00:03;;;;;;;;;;;;;;;3.46;100.00;99577.13;5046690;28;19964;-61
2023/03/01 09:02:28;;;;;;;;;;;;;;;3.64;100.00;99567.44;5047116;28;20065;-60
2023/03/01 09:04:54;;;;;;;;;;;;;;;3.88;100.00;99564.59;5044070;28;19946;-61
2023/03/01 09:07:19;;;;;;;;;;;;;;;3.74;100.00;99562.53;5043427;28;19976;-60
2023/03/01 09:09:45;;;;;;;;;;;;;;;3.68;100.00;99548.06;5047366;28;19958;-61
2023/03/01 09:12:11;;;;;;;;;;;;;;;3.79;100.00;99545.75;5048025;28;19984;-63
2023/03/01 09:14:38;;;;;;;;;;;;;;;3.72;100.00;99549.84;5045633;28;20445;-61
2023/03/01 09:17:04;;;;;;;;;;;;;;;3.95;100.00;99540.19;5043590;28;19948;-61
2023/03/01 09:19:30;;;;;;;;;;;;;;;3.39;100.00;99532.19;5034364;28;19955;-61
2023/03/01 09:21:55;;;;;;;;;;;;;;;3.27;100.00;99536.09;5045666;28;20441;-61
2023/03/01 09:24:22;;;;;;;;;;;;;;;3.51;100.00;99529.06;5028815;28;19951;-62
2023/03/01 09:26:51;;;;;;;;;;;;;;;3.93;100.00;99524.97;5046328;28;19982;-60
2023/03/01 09:29:16;;;;;;;;;;;;;;;4.70;100.00;99523.16;5045649;28;19937;-59
2023/03/01 09:31:42;;;;;;;;;;;;;;;5.13;100.00;99521.38;5037513;28;20340;-61
2023/03/01 09:34:08;;;;;;;;;;;;;;;5.11;100.00;99526.41;5048333;28;19947;-59
2023/03/01 09:36:34;;;;;;;;;;;;;;;4.83;100.00;99521.69;5045962;28;20058;-61
2023/03/01 09:39:00;;;;;;;;;;;;;;;5.44;100.00;99521.88;5044251;28;20042;-59
2023/03/01 09:41:40;;;;;;;;;;;;;;;5.58;100.00;99519.56;5046224;28;20465;-60
2023/03/01 09:44:23;;;;;;;;;;;;;;;5.55;96.54;99519.50;5044957;28;19944;-62
2023/03/01 09:46:48;;;;;;;;;;;;;;;5.65;92.96;99512.84;5048274;28;20060;-59
2023/03/01 09:49:17;;;;;;;;;;;;;;;5.55;93.01;99511.88;5048499;28;20439;-59
2023/03/01 09:51:45;;;;;;;;;;;;;;;5.50;93.45;99510.94;5046679;28;19944;-59
2023/03/01 09:54:11;;;;;;;;;;;;;;;5.70;93.11;99501.06;5039363;28;19935;-60
2023/03/01 09:56:39;;;;;;;;;;;;;;;5.86;92.64;99502.97;5046798;28;20037;-61
2023/03/01 09:59:05;;;;;;;;;;;;;;;5.87;91.53;99507.28;5044098;28;19963;-58
2023/03/01 10:01:32;;;;;;;;;;;;;;;5.96;91.27;99502.31;5044913;28;19963;-58
2023/03/01 10:04:16;;;;;;;;;;;;;;;6.01;88.38;99493.06;5045472;28;19945;-59
2023/03/01 10:06:45;;;;;;;;;;;;;;;6.13;88.86;99483.03;5046191;28;19950;-59
2023/03/01 10:09:13;;;;;;;;;;;;;;;6.01;88.03;99477.78;5048511;28;19943;-64
2023/03/01 10:11:41;;;;;;;;;;;;;;;6.23;88.36;99478.91;5047202;28;20003;-59
2023/03/01 10:14:15;;;;;;;;;;;;;;;6.06;85.90;99473.59;5045654;28;19924;-60
2023/03/01 10:16:44;;;;;;;;;;;;;;;6.37;83.76;99465.47;5043464;28;19942;-60
2023/03/01 10:19:17;;;;;;;;;;;;;;;6.48;83.16;99467.28;5045675;28;19939;-60
2023/03/01 10:21:44;;;;;;;;;;;;;;;6.68;81.83;99466.66;5046537;28;20407;-61
2023/03/01 10:24:19;;;;;;;;;;;;;;;6.87;79.48;99457.50;5045948;28;19961;-60
2023/03/01 10:26:53;;;;;;;;;;;;;;;6.54;84.28;99452.91;5049995;28;19925;-60
2023/03/01 10:29:23;;;;;;;;;;;;;;;6.02;85.06;99456.59;5048435;28;19925;-59
2023/03/01 10:31:50;;;;;;;;;;;;;;;5.54;88.48;99446.59;5048678;28;19943;-59
2023/03/01 10:34:17;;;;;;;;;;;;;;;6.12;87.28;99457.53;5051567;28;19963;-60
2023/03/01 10:36:43;;;;;;;;;;;;;;;6.00;86.34;99454.84;5051726;28;20171;-60
2023/03/01 10:39:27;;;;;;;;;;;;;;;6.11;84.19;99448.22;5050910;28;20164;-59
2023/03/01 10:42:00;;;;;;;;;;;;;;;6.18;89.38;99443.22;5049721;28;20557;-60
2023/03/01 10:44:45;;;;;;;;;;;;;;;6.23;90.69;99426.28;5048459;28;19961;-61
2023/03/01 10:47:15;;;;;;;;;;;;;;;6.50;90.14;99435.03;5049473;28;19921;-59
2023/03/01 10:50:01;;;;;;;;;;;;;;;6.56;85.79;99422.38;5050355;28;19971;-59
2023/03/01 10:52:31;;;;;;;;;;;;;;;6.72;88.44;99417.44;5050511;28;20006;-59
2023/03/01 10:54:59;;;;;;;;;;;;;;;7.16;83.94;99405.06;5050204;28;19985;-59
2023/03/01 10:57:28;;;;;;;;;;;;;;;7.01;86.98;99393.88;5050179;28;19945;-59
2023/03/01 11:00:01;;;;;;;;;;;;;;;7.29;81.05;99398.34;5048750;28;20414;-60
2023/03/01 11:02:30;;;;;;;;;;;;;;;7.31;81.09;99397.50;5049989;28;19928;-60
2023/03/01 11:04:57;;;;;;;;;;;;;;;7.66;77.54;99396.84;5050874;28;19969;-60
2023/03/01 11:07:22;;;;;;;;;;;;;;;7.35;82.93;99389.00;5052673;28;19947;-61
2023/03/01 11:09:48;;;;;;;;;;;;;;;6.83;83.89;99389.50;5050400;28;20698;-60
2023/03/01 11:12:15;;;;;;;;;;;;;;;6.71;86.99;99394.47;5046868;28;20457;-58
2023/03/01 11:14:49;;;;;;;;;;;;;;;7.18;88.31;99384.66;5047994;28;19974;-60
2023/03/01 11:17:26;;;;;;;;;;;;;;;7.75;85.01;99384.97;5048104;28;19939;-58
2023/03/01 11:20:04;;;;;;;;;;;;;;;7.66;83.09;99389.19;5048826;28;20599;-61
2023/03/01 11:22:31;;;;;;;;;;;;;;;7.55;82.41;99396.81;5048837;28;19948;-62
2023/03/01 11:24:58;;;;;;;;;;;;;;;7.77;81.14;99383.28;5049076;28;19924;-59
2023/03/01 11:27:43;;;;;;;;;;;;;;;7.71;81.65;99397.72;5033644;28;20109;-60
2023/03/01 11:30:14;;;;;;;;;;;;;;;7.89;81.82;99390.16;5047303;28;20009;-62
2023/03/01 11:32:42;;;;;;;;;;;;;;;8.10;79.23;99387.66;5044800;28;20356;-61
2023/03/01 11:35:19;;;;;;;;;;;;;;;8.06;74.91;99392.75;5045453;28;19959;-59
2023/03/01 11:37:54;;;;;;;;;;;;;;;8.40;75.53;99394.56;5038875;28;20481;-60
2023/03/01 11:40:32;;;;;;;;;;;;;;;8.39;75.68;99394.56;5047326;28;19954;-62
2023/03/01 11:43:06;;;;;;;;;;;;;;;7.81;81.35;99394.34;5048922;28;19982;-61
2023/03/01 11:45:39;;;;;;;;;;;;;;;7.95;81.44;99387.59;5051561;28;19928;-62
2023/03/01 11:48:19;;;;;;;;;;;;;;;8.03;81.67;99387.63;5049363;28;20512;-60
2023/03/01 11:50:47;;;;;;;;;;;;;;;8.20;81.12;99381.72;5047906;28;20293;-60
2023/03/01 11:53:31;;;;;;;;;;;;;;;8.17;78.81;99385.97;5045315;28;19939;-62
2023/03/01 11:56:02;;;;;;;;;;;;;;;7.95;79.93;99382.50;5046815;28;19932;-61
2023/03/01 11:58:37;;;;;;;;;;;;;;;8.04;78.47;99384.22;5047581;28;19935;-60
2023/03/01 12:01:15;;;;;;;;;;;;;;;8.26;76.14;99380.88;5046231;28;19970;-62
2023/03/01 12:03:44;;;;;;;;;;;;;;;8.24;79.29;99378.31;5047986;28;20295;-61
2023/03/01 12:06:12;;;;;;;;;;;;;;;8.07;82.64;99374.88;5049727;28;19966;-63
2023/03/01 12:08:57;;;;;;;;;;;;;;;8.34;83.07;99375.81;5048213;28;20019;-59
2023/03/01 12:11:23;;;;;;;;;;;;;;;8.41;88.24;99375.81;5048439;28;20307;-64
2023/03/01 12:14:06;;;;;;;;;;;;;;;8.59;85.76;99367.34;5048587;28;19939;-63
2023/03/01 12:16:35;;;;;;;;;;;;;;;8.30;88.14;99366.44;5050264;28;19932;-63
2023/03/01 12:19:09;;;;;;;;;;;;;;;8.23;91.46;99357.91;5044743;28;20557;-62
2023/03/01 12:21:53;;;;;;;;;;;;;;;8.07;94.01;99368.91;5047394;28;19924;-62
2023/03/01 12:24:19;;;;;;;;;;;;;;;7.77;94.61;99367.09;5047714;28;19924;-66
2023/03/01 12:26:55;;;;;;;;;;;;;;;8.17;93.14;99360.44;5046868;28;20014;-62
2023/03/01 12:29:30;;;;;;;;;;;;;;;8.19;89.10;99357.03;5048910;28;20414;-61
2023/03/01 12:32:08;;;;;;;;;;;;;;;8.37;86.04;99352.81;5047638;28;19924;-63
2023/03/01 12:34:52;;;;;;;;;;;;;;;8.49;84.33;99348.56;5047840;28;20031;-62
2023/03/01 12:37:22;;;;;;;;;;;;;;;8.54;82.46;99346.03;5049078;28;20332;-62
2023/03/01 12:40:00;;;;;;;;;;;;;;;8.57;83.50;99343.50;5048436;28;20023;-61
2023/03/01 12:42:31;;;;;;;;;;;;;;;8.73;80.24;99331.56;5042414;28;19929;-66
2023/03/01 12:45:06;;;;;;;;;;;;;;;8.68;82.49;99336.69;5045030;28;19929;-62
2023/03/01 12:47:31;;;;;;;;;;;;;;;8.72;83.19;99335.81;5044762;28;20338;-62
2023/03/01 12:50:01;;;;;;;;;;;;;;;8.67;83.35;99338.38;5044636;28;19958;-63
2023/03/01 12:52:35;;;;;;;;;;;;;;;8.56;80.93;99336.69;5045664;28;19925;-60